KMWA/MWA METAR and TAF weather

Enter ICAO airport designator
Station Type Date Time Source
KMWA METAR 2018/12/17 16:45 UTC NOAA

KMWA 171645Z 32009KT 20SM SKC 06/00 A3028


Station Type Date Time Source
KMWA Decoded METAR 2018/12/17 16:45 UTC NOAA

Marion, Williamson County Regional Airport, IL, United States (KMWA) 37-45-01N 089-00-04W
Dec 17, 2018 - 11:45 AM EST / 2018.12.17 1645 UTC
Wind: from the NW (320 degrees) at 10 MPH (9 KT):0
Visibility: 20 mile(s):0
Sky conditions: clear
Temperature: 42 F (6 C)
Dew Point: 32 F (0 C)
Relative Humidity: 65%
Pressure (altimeter): 30.28 in. Hg (1025 hPa)
ob: KMWA 171645Z 32009KT 20SM SKC 06/00 A3028
cycle: 17

Station Type Date Time Source
KMWA TAF UTC NOAA

Error!


Example: see airport list